Time;durP1;ratioP1;P1;durP2;ratioP2;P2;SDS_P1;SDS_P2;PMS_P1;PMS_P2;Temp;Humidity;BMP_temperature;BMP_pressure;BME280_temperature;BME280_humidity;BME280_pressure;Samples;Min_cycle;Max_cycle;Signal;HPM_P1;HPM_P2
2023/03/21 00:01:59;;;;;;;23.33;19.40;;;9.80;99.90;;;;;;4945533;28;40404;-80
2023/03/21 00:04:26;;;;;;;28.03;21.10;;;9.80;99.90;;;;;;4949721;28;38846;-81
2023/03/21 00:06:52;;;;;;;26.60;20.27;;;9.80;99.90;;;;;;4934978;28;36937;-80
2023/03/21 00:09:19;;;;;;;28.60;21.77;;;9.80;99.90;;;;;;4950185;28;37414;-80
2023/03/21 00:11:45;;;;;;;33.70;25.23;;;9.80;99.90;;;;;;4954797;28;38905;-81
2023/03/21 00:14:13;;;;;;;31.87;24.37;;;9.80;99.90;;;;;;4937214;28;37249;-81
2023/03/21 00:16:39;;;;;;;38.17;26.27;;;9.70;99.90;;;;;;4936704;28;38389;-81
2023/03/21 00:19:08;;;;;;;34.27;24.43;;;9.70;99.90;;;;;;4952093;28;35960;-80
2023/03/21 00:21:37;;;;;;;37.37;26.67;;;9.70;99.90;;;;;;4954242;28;39281;-81
2023/03/21 00:24:05;;;;;;;37.17;25.07;;;9.70;99.90;;;;;;4954680;28;39760;-81
2023/03/21 00:26:31;;;;;;;41.40;26.67;;;9.70;99.90;;;;;;4930948;29;37375;-82
2023/03/21 00:28:57;;;;;;;37.17;24.60;;;9.70;99.90;;;;;;4952067;28;38923;-81
2023/03/21 00:31:24;;;;;;;32.43;24.07;;;9.70;99.90;;;;;;4928398;29;37177;-81
2023/03/21 00:33:50;;;;;;;36.87;23.73;;;9.70;99.90;;;;;;4932064;28;37952;-80
2023/03/21 00:36:16;;;;;;;34.37;24.10;;;9.70;99.90;;;;;;4935063;28;37272;-81
2023/03/21 00:38:44;;;;;;;33.73;24.00;;;9.70;99.90;;;;;;4945400;28;37469;-81
2023/03/21 00:41:15;;;;;;;41.07;22.90;;;9.70;99.90;;;;;;4945300;28;39566;-80
2023/03/21 00:43:41;;;;;;;34.07;22.23;;;9.80;99.90;;;;;;4935628;28;37747;-81
2023/03/21 00:46:08;;;;;;;31.30;21.50;;;9.70;99.90;;;;;;4936994;28;36985;-81
2023/03/21 00:48:34;;;;;;;31.87;21.17;;;9.70;99.90;;;;;;4953888;28;38298;-82
2023/03/21 00:51:00;;;;;;;35.10;21.27;;;9.70;99.90;;;;;;4951240;28;39459;-81
2023/03/21 00:53:27;;;;;;;37.07;20.90;;;9.70;99.90;;;;;;4935121;28;38394;-81
2023/03/21 00:55:53;;;;;;;35.10;22.13;;;9.70;99.90;;;;;;4942931;28;37321;-80
2023/03/21 00:58:21;;;;;;;29.90;20.60;;;9.80;99.90;;;;;;4939107;28;37041;-80
2023/03/21 01:00:47;;;;;;;36.60;22.37;;;9.70;99.90;;;;;;4953867;28;39410;-80
2023/03/21 01:03:25;;;;;;;38.43;24.37;;;9.70;99.90;;;;;;4940627;28;39179;-82
2023/03/21 01:06:06;;;;;;;38.60;21.93;;;9.70;99.90;;;;;;4949424;28;39215;-80
2023/03/21 01:08:35;;;;;;;36.60;21.30;;;9.80;99.90;;;;;;4949160;28;48869;-80
2023/03/21 01:11:05;;;;;;;35.27;20.73;;;9.70;99.90;;;;;;4937518;28;39505;-80
2023/03/21 01:13:32;;;;;;;40.10;24.17;;;9.70;99.90;;;;;;4957808;28;37072;-80
2023/03/21 01:15:59;;;;;;;30.53;20.27;;;9.70;99.90;;;;;;4945316;28;37224;-81
2023/03/21 01:18:28;;;;;;;34.07;19.87;;;9.70;99.90;;;;;;4935904;29;36811;-80
2023/03/21 01:20:57;;;;;;;35.67;18.50;;;9.70;99.90;;;;;;4971582;28;39033;-81
2023/03/21 01:23:28;;;;;;;26.07;18.80;;;9.70;99.90;;;;;;4942729;28;38438;-81
2023/03/21 01:25:56;;;;;;;28.20;17.07;;;9.70;99.90;;;;;;4957047;28;38040;-81
2023/03/21 01:28:27;;;;;;;29.60;17.57;;;9.70;99.90;;;;;;4953732;28;37310;-81
2023/03/21 01:30:56;;;;;;;28.27;15.93;;;9.70;99.90;;;;;;4940479;28;39907;-81
2023/03/21 01:33:23;;;;;;;25.10;15.83;;;9.70;99.90;;;;;;4954720;28;40026;-82
2023/03/21 01:35:52;;;;;;;20.23;14.60;;;9.70;99.90;;;;;;4956504;28;38784;-81
2023/03/21 01:38:18;;;;;;;25.83;15.00;;;9.70;99.90;;;;;;4940984;28;36585;-81
2023/03/21 01:40:47;;;;;;;25.80;15.97;;;9.60;99.90;;;;;;4938802;28;39213;-81
2023/03/21 01:43:43;;;;;;;22.97;13.97;;;9.70;99.90;;;;;;4937732;28;38733;-81
2023/03/21 01:46:38;;;;;;;28.70;14.77;;;9.60;99.90;;;;;;4919276;28;37922;-81
2023/03/21 01:49:16;;;;;;;27.83;14.40;;;9.70;99.90;;;;;;4925494;28;36254;-81
2023/03/21 01:51:48;;;;;;;25.30;13.73;;;9.60;99.90;;;;;;4932017;28;39908;-80
2023/03/21 01:54:23;;;;;;;29.20;14.00;;;9.60;99.90;;;;;;4929179;28;39185;-81
2023/03/21 01:56:52;;;;;;;25.60;13.97;;;9.60;99.90;;;;;;4923785;28;37580;-80
2023/03/21 01:59:48;;;;;;;25.23;14.20;;;9.60;99.90;;;;;;4941093;28;36481;-80
2023/03/21 02:02:22;;;;;;;31.57;15.60;;;9.60;99.90;;;;;;5443166;23;39539;-77
2023/03/21 02:04:50;;;;;;;24.47;14.67;;;9.60;99.90;;;;;;4948879;28;37682;-79
2023/03/21 02:07:24;;;;;;;38.03;19.20;;;9.60;99.90;;;;;;4969590;28;38254;-77
2023/03/21 02:09:51;;;;;;;33.93;18.33;;;9.60;99.90;;;;;;4957457;28;36561;-77
2023/03/21 02:12:18;;;;;;;30.40;17.37;;;9.50;99.90;;;;;;4952286;28;37768;-77
2023/03/21 02:14:50;;;;;;;33.73;18.20;;;9.50;99.90;;;;;;4950931;28;38229;-77
2023/03/21 02:17:28;;;;;;;26.53;17.80;;;9.50;99.90;;;;;;4969336;28;38240;-77
2023/03/21 02:20:24;;;;;;;31.57;17.67;;;9.50;99.90;;;;;;4946836;28;37749;-77
2023/03/21 02:23:15;;;;;;;31.63;19.60;;;9.50;99.90;;;;;;4968949;28;48966;-78
2023/03/21 02:26:15;;;;;;;31.73;20.40;;;9.50;99.90;;;;;;4945069;28;47016;-77
2023/03/21 02:29:08;;;;;;;30.17;19.30;;;9.50;99.90;;;;;;4960517;28;48650;-78
2023/03/21 02:31:39;;;;;;;31.65;20.23;;;9.50;99.90;;;;;;4938424;28;47766;-77
2023/03/21 02:34:37;;;;;;;33.77;20.50;;;9.50;99.90;;;;;;4947031;28;37695;-77
2023/03/21 02:37:40;;;;;;;32.70;21.03;;;9.50;99.90;;;;;;4906205;28;38769;-77
2023/03/21 02:40:09;;;;;;;38.83;22.42;;;9.40;99.90;;;;;;4941576;28;37404;-77
2023/03/21 02:42:59;;;;;;;35.30;21.53;;;9.40;99.90;;;;;;4968357;28;36749;-78
2023/03/21 02:45:31;;;;;;;35.97;21.13;;;9.40;99.90;;;;;;4951116;28;38802;-78
2023/03/21 02:48:21;;;;;;;31.65;20.55;;;9.40;99.90;;;;;;4948748;28;37374;-78
2023/03/21 02:50:55;;;;;;;46.77;23.30;;;9.40;99.90;;;;;;4945080;28;47387;-77
2023/03/21 02:53:25;;;;;;;37.30;22.67;;;9.40;99.90;;;;;;4948664;28;36203;-77
2023/03/21 02:55:53;;;;;;;33.17;20.13;;;9.40;99.90;;;;;;4946684;28;39329;-77
2023/03/21 02:58:22;;;;;;;34.87;19.50;;;9.40;99.90;;;;;;4941206;28;36955;-78
2023/03/21 03:00:50;;;;;;;37.13;20.63;;;9.40;99.90;;;;;;4961296;28;38290;-78
2023/03/21 03:03:16;;;;;;;34.80;20.83;;;9.40;99.90;;;;;;4941746;28;36230;-78
2023/03/21 03:05:47;;;;;;;31.87;18.93;;;9.40;99.90;;;;;;4939522;28;37756;-78
2023/03/21 03:08:41;;;;;;;38.40;21.20;;;9.40;99.90;;;;;;4954847;28;38304;-77
2023/03/21 03:11:25;;;;;;;37.97;19.00;;;9.40;99.90;;;;;;4940095;28;38592;-76
2023/03/21 03:14:04;;;;;;;30.57;16.73;;;9.40;99.90;;;;;;4941085;28;38442;-76
2023/03/21 03:16:47;;;;;;;35.10;17.80;;;9.40;99.90;;;;;;4937492;28;48958;-76
2023/03/21 03:19:29;;;;;;;28.17;15.83;;;9.50;99.90;;;;;;4943397;28;38522;-76
2023/03/21 03:22:18;;;;;;;31.57;15.57;;;9.50;99.90;;;;;;4946866;28;38217;-76
2023/03/21 03:24:57;;;;;;;29.47;15.67;;;9.50;99.90;;;;;;4943427;28;48340;-76
2023/03/21 03:27:29;;;;;;;28.17;15.07;;;9.50;99.90;;;;;;4942395;28;39779;-77
2023/03/21 03:30:01;;;;;;;31.17;14.67;;;9.50;99.90;;;;;;4942236;28;37661;-77
2023/03/21 03:32:35;;;;;;;34.45;16.05;;;9.50;99.90;;;;;;4942420;28;37936;-77
2023/03/21 03:35:04;;;;;;;26.67;15.47;;;9.50;99.90;;;;;;4949792;28;37217;-76
2023/03/21 03:37:33;;;;;;;26.23;15.50;;;9.50;99.90;;;;;;4946969;28;39386;-78
2023/03/21 03:40:05;;;;;;;29.57;15.47;;;9.50;99.90;;;;;;4946221;28;38549;-76
2023/03/21 03:42:37;;;;;;;;;;;9.50;99.90;;;;;;4948118;28;48502;-76
2023/03/21 03:45:08;;;;;;;29.33;16.57;;;9.50;99.90;;;;;;4944934;28;37617;-77
2023/03/21 03:47:46;;;;;;;24.63;14.87;;;9.50;99.90;;;;;;4945090;28;47661;-76
2023/03/21 03:50:40;;;;;;;31.03;17.37;;;9.60;99.90;;;;;;4946026;28;37119;-76
2023/03/21 03:53:20;;;;;;;32.20;16.70;;;9.50;99.90;;;;;;4946458;28;38871;-78
2023/03/21 03:55:50;;;;;;;31.50;15.67;;;9.50;99.90;;;;;;4950696;28;37233;-76
2023/03/21 03:58:18;;;;;;;27.70;16.00;;;9.50;99.90;;;;;;4963977;28;38607;-76
2023/03/21 04:00:44;;;;;;;31.00;16.33;;;9.50;99.90;;;;;;4951333;28;38684;-77
2023/03/21 04:03:11;;;;;;;26.40;15.23;;;9.50;99.90;;;;;;4945113;28;38051;-77
2023/03/21 04:05:37;;;;;;;32.23;16.70;;;9.50;99.90;;;;;;4943711;28;37301;-77
2023/03/21 04:08:05;;;;;;;30.00;15.33;;;9.50;99.90;;;;;;4942675;28;37673;-77
2023/03/21 04:10:31;;;;;;;30.10;15.73;;;9.50;99.90;;;;;;4944989;28;38582;-77
2023/03/21 04:12:57;;;;;;;22.30;14.77;;;9.50;99.90;;;;;;4951345;28;38262;-77
2023/03/21 04:15:23;;;;;;;28.53;15.60;;;9.50;99.90;;;;;;4943997;28;37189;-77
2023/03/21 04:17:50;;;;;;;27.93;15.20;;;9.50;99.90;;;;;;4953834;28;39014;-77
2023/03/21 04:20:16;;;;;;;31.60;15.87;;;9.50;99.90;;;;;;4947775;28;38007;-77
2023/03/21 04:22:42;;;;;;;33.53;16.23;;;9.50;99.90;;;;;;4953576;28;37229;-77
2023/03/21 04:25:09;;;;;;;26.53;15.83;;;9.40;99.90;;;;;;4947906;28;36154;-76
2023/03/21 04:27:35;;;;;;;30.23;15.80;;;9.50;99.90;;;;;;4942966;28;38985;-76
2023/03/21 04:30:04;;;;;;;26.43;15.30;;;9.50;99.90;;;;;;4945833;28;38911;-76
2023/03/21 04:32:32;;;;;;;27.90;16.50;;;9.50;99.90;;;;;;4944646;28;48956;-77
2023/03/21 04:34:59;;;;;;;34.90;18.83;;;9.50;99.90;;;;;;4945020;28;36317;-76
2023/03/21 04:37:26;;;;;;;29.03;16.47;;;9.50;99.90;;;;;;4951338;28;37709;-76
2023/03/21 04:39:53;;;;;;;28.70;16.63;;;9.40;99.90;;;;;;4952631;28;37518;-77
2023/03/21 04:42:19;;;;;;;31.50;17.03;;;9.50;99.90;;;;;;4961698;28;38146;-77
2023/03/21 04:44:47;;;;;;;27.33;18.00;;;9.40;99.90;;;;;;4952005;28;36827;-77
2023/03/21 04:47:14;;;;;;;33.30;18.20;;;9.40;99.90;;;;;;4949385;28;39150;-77
2023/03/21 04:49:41;;;;;;;30.13;17.03;;;9.50;99.90;;;;;;4949991;28;37953;-77
2023/03/21 04:52:07;;;;;;;33.80;17.77;;;9.50;99.90;;;;;;4950429;28;37010;-77
2023/03/21 04:54:34;;;;;;;30.63;17.77;;;9.40;99.90;;;;;;4959946;28;38254;-77
2023/03/21 04:57:00;;;;;;;32.23;18.00;;;9.40;99.90;;;;;;4951111;28;38673;-77
2023/03/21 04:59:26;;;;;;;28.53;17.33;;;9.40;99.90;;;;;;4950875;28;39288;-77
2023/03/21 05:01:52;;;;;;;29.23;17.90;;;9.40;99.90;;;;;;4952060;28;37241;-77
2023/03/21 05:04:18;;;;;;;26.40;16.90;;;9.40;99.90;;;;;;4967735;28;37423;-77
2023/03/21 05:06:45;;;;;;;31.73;17.90;;;9.40;99.90;;;;;;4955940;28;37651;-77
2023/03/21 05:09:12;;;;;;;34.20;18.40;;;9.40;99.90;;;;;;4951258;28;38600;-77
2023/03/21 05:11:39;;;;;;;29.17;17.00;;;9.40;99.90;;;;;;4971884;28;39290;-77
2023/03/21 05:14:07;;;;;;;31.90;16.43;;;9.40;99.90;;;;;;4955884;28;36120;-77
2023/03/21 05:16:35;;;;;;;31.63;15.87;;;9.40;99.90;;;;;;4954081;28;37613;-77
2023/03/21 05:19:02;;;;;;;31.30;16.83;;;9.40;99.90;;;;;;4975518;28;38568;-77
2023/03/21 05:21:40;;;;;;;29.30;15.80;;;9.40;99.90;;;;;;4950913;28;47356;-77
2023/03/21 05:24:11;;;;;;;31.80;16.47;;;9.50;99.90;;;;;;4950006;28;35867;-77
2023/03/21 05:26:38;;;;;;;31.20;16.90;;;9.50;99.90;;;;;;4970481;28;38858;-77
2023/03/21 05:29:06;;;;;;;22.60;15.47;;;9.50;99.90;;;;;;4946530;28;37202;-77
2023/03/21 05:31:32;;;;;;;27.60;15.80;;;9.50;99.90;;;;;;4970608;28;36517;-77
2023/03/21 05:33:59;;;;;;;27.30;14.77;;;9.50;99.90;;;;;;4952195;28;36203;-77
2023/03/21 05:36:25;;;;;;;27.70;15.13;;;9.50;99.90;;;;;;4974302;28;39068;-77
2023/03/21 05:38:51;;;;;;;28.30;16.40;;;9.50;99.90;;;;;;4973064;28;38615;-78
2023/03/21 05:41:20;;;;;;;28.73;17.07;;;9.50;99.90;;;;;;4952270;28;37176;-77
2023/03/21 05:43:46;;;;;;;30.67;15.50;;;9.50;99.90;;;;;;4975824;28;37336;-77
2023/03/21 05:46:14;;;;;;;26.37;15.93;;;9.50;99.90;;;;;;4977977;28;38693;-76
2023/03/21 05:48:40;;;;;;;25.40;15.53;;;9.50;99.90;;;;;;4957340;28;38127;-76
2023/03/21 05:51:06;;;;;;;30.30;16.07;;;9.40;99.90;;;;;;4950062;28;37184;-75
2023/03/21 05:53:32;;;;;;;30.83;16.43;;;9.50;99.90;;;;;;4950468;28;37073;-76
2023/03/21 05:55:58;;;;;;;32.67;16.20;;;9.40;99.90;;;;;;4970073;28;39612;-76
2023/03/21 05:58:24;;;;;;;28.30;15.60;;;9.40;99.90;;;;;;4946368;28;37735;-76
2023/03/21 06:00:50;;;;;;;23.93;14.07;;;9.40;99.90;;;;;;4947636;28;37822;-77
2023/03/21 06:03:17;;;;;;;29.63;15.87;;;9.40;99.90;;;;;;4961956;28;37869;-77
2023/03/21 06:05:43;;;;;;;23.37;13.93;;;9.40;99.90;;;;;;4953626;28;37828;-77
2023/03/21 06:08:09;;;;;;;29.60;15.73;;;9.40;99.90;;;;;;4963603;28;37480;-77
2023/03/21 06:10:35;;;;;;;26.80;15.07;;;9.40;99.90;;;;;;4968719;28;38154;-78
2023/03/21 06:13:01;;;;;;;26.30;15.47;;;9.40;99.90;;;;;;4955388;28;36142;-78
2023/03/21 06:15:27;;;;;;;26.93;14.70;;;9.40;99.90;;;;;;4953619;28;47131;-78
2023/03/21 06:17:53;;;;;;;25.50;13.97;;;9.40;99.90;;;;;;4952507;28;37223;-78
2023/03/21 06:20:19;;;;;;;23.73;13.10;;;9.40;99.90;;;;;;4955488;28;36697;-79
2023/03/21 06:22:45;;;;;;;31.00;14.17;;;9.40;99.90;;;;;;4975479;28;37533;-79
2023/03/21 06:25:12;;;;;;;29.27;13.90;;;9.40;99.90;;;;;;4956659;28;40179;-76
2023/03/21 06:27:38;;;;;;;27.27;13.13;;;9.40;99.90;;;;;;4954960;28;37969;-76
2023/03/21 06:30:05;;;;;;;22.17;11.63;;;9.40;99.90;;;;;;4966875;28;38383;-76
2023/03/21 06:32:31;;;;;;;20.43;12.67;;;9.40;99.90;;;;;;4946911;28;47134;-75
2023/03/21 06:34:58;;;;;;;25.83;12.53;;;9.40;99.90;;;;;;4968524;28;39995;-75
2023/03/21 06:37:25;;;;;;;25.73;12.53;;;9.40;99.90;;;;;;4966720;28;38551;-75
2023/03/21 06:39:52;;;;;;;28.97;12.93;;;9.40;99.90;;;;;;4952235;28;37355;-76
2023/03/21 06:42:18;;;;;;;22.03;11.67;;;9.40;99.90;;;;;;4973013;28;37476;-77
2023/03/21 06:44:44;;;;;;;22.07;12.50;;;9.40;99.90;;;;;;4969419;28;38843;-76
2023/03/21 06:47:10;;;;;;;24.70;12.43;;;9.40;99.90;;;;;;4951399;28;38622;-77
2023/03/21 06:49:36;;;;;;;33.67;14.33;;;9.40;99.90;;;;;;4952946;28;38501;-76
2023/03/21 06:52:02;;;;;;;24.13;11.77;;;9.30;99.90;;;;;;4968488;28;38329;-75
2023/03/21 06:54:28;;;;;;;25.40;12.90;;;9.40;99.90;;;;;;4945781;28;37815;-76
2023/03/21 06:56:55;;;;;;;26.37;12.53;;;9.30;99.90;;;;;;4970690;28;39521;-77
2023/03/21 06:59:21;;;;;;;24.00;12.70;;;9.40;99.90;;;;;;4950741;28;38279;-76
2023/03/21 07:01:47;;;;;;;23.60;12.90;;;9.40;99.90;;;;;;4964399;28;38288;-76
2023/03/21 07:04:13;;;;;;;25.43;12.43;;;9.40;99.90;;;;;;4972464;28;39589;-78
2023/03/21 07:06:41;;;;;;;29.03;12.33;;;9.40;99.90;;;;;;4964297;28;37188;-75
2023/03/21 07:09:07;;;;;;;22.87;11.70;;;9.40;99.90;;;;;;4969305;28;38155;-75
2023/03/21 07:11:35;;;;;;;24.93;13.10;;;9.40;99.90;;;;;;4964657;28;37293;-75
2023/03/21 07:14:02;;;;;;;23.03;12.30;;;9.40;99.90;;;;;;4954631;28;38687;-75
2023/03/21 07:16:28;;;;;;;22.80;11.67;;;9.40;99.90;;;;;;4952895;28;37327;-76
2023/03/21 07:18:57;;;;;;;26.67;12.10;;;9.40;99.90;;;;;;4973071;28;39268;-75
2023/03/21 07:21:23;;;;;;;25.97;12.17;;;9.50;99.90;;;;;;4964200;28;38230;-75
2023/03/21 07:23:49;;;;;;;31.27;12.10;;;9.50;99.90;;;;;;4970857;28;39081;-75
2023/03/21 07:26:17;;;;;;;23.17;11.47;;;9.50;99.90;;;;;;4975343;28;37510;-75
2023/03/21 07:28:44;;;;;;;29.27;12.40;;;9.50;99.90;;;;;;4956860;28;37806;-75
2023/03/21 07:31:15;;;;;;;21.93;10.83;;;9.50;99.90;;;;;;4967902;28;38413;-76
2023/03/21 07:33:41;;;;;;;22.37;11.33;;;9.60;99.90;;;;;;4965312;28;38944;-76
2023/03/21 07:36:15;;;;;;;27.37;10.63;;;9.60;99.90;;;;;;4951891;28;37501;-74
2023/03/21 07:38:42;;;;;;;23.20;10.17;;;9.60;99.90;;;;;;4974350;28;38094;-76
2023/03/21 07:41:08;;;;;;;24.20;10.33;;;9.60;99.90;;;;;;4961049;28;36261;-76
2023/03/21 07:43:34;;;;;;;21.60;10.83;;;9.60;99.90;;;;;;4963591;28;37910;-75
2023/03/21 07:46:01;;;;;;;21.73;10.30;;;9.60;99.90;;;;;;4979234;28;38868;-75
2023/03/21 07:48:28;;;;;;;23.00;9.60;;;9.60;99.90;;;;;;4955402;28;47382;-75
2023/03/21 07:50:55;;;;;;;25.43;9.73;;;9.70;99.90;;;;;;4968549;28;37116;-75
2023/03/21 07:53:21;;;;;;;23.47;10.07;;;9.70;99.90;;;;;;4954881;28;37732;-76
2023/03/21 07:55:51;;;;;;;17.40;8.03;;;9.70;99.90;;;;;;4961084;28;37544;-75
2023/03/21 07:58:18;;;;;;;21.40;8.70;;;9.80;99.90;;;;;;4960386;28;38810;-75
2023/03/21 08:00:44;;;;;;;19.70;9.37;;;9.80;99.90;;;;;;4949882;28;39208;-75
2023/03/21 08:03:10;;;;;;;17.07;7.53;;;9.90;99.90;;;;;;4964561;28;39195;-75
2023/03/21 08:05:37;;;;;;;18.03;7.67;;;9.90;99.90;;;;;;4963000;28;38503;-74
2023/03/21 08:08:04;;;;;;;19.50;7.70;;;10.00;99.90;;;;;;4943597;28;37058;-75
2023/03/21 08:10:31;;;;;;;15.30;7.07;;;10.10;99.90;;;;;;4945698;28;35814;-75
2023/03/21 08:12:57;;;;;;;16.80;7.40;;;10.10;99.90;;;;;;4945564;28;39160;-76
2023/03/21 08:15:23;;;;;;;17.23;7.53;;;10.10;99.90;;;;;;4949440;28;37614;-77
2023/03/21 08:17:49;;;;;;;14.15;6.40;;;10.20;99.90;;;;;;4948602;28;37203;-76
2023/03/21 08:20:20;;;;;;;16.30;6.60;;;10.30;99.90;;;;;;4980081;28;38310;-77
2023/03/21 08:22:48;;;;;;;14.60;6.40;;;10.30;99.90;;;;;;4969072;28;39744;-77
2023/03/21 08:25:16;;;;;;;13.90;6.83;;;10.40;99.90;;;;;;4978984;28;39552;-74
2023/03/21 08:27:44;;;;;;;11.87;6.90;;;10.40;99.90;;;;;;4971081;28;39568;-75
2023/03/21 08:30:12;;;;;;;18.58;7.35;;;10.50;99.90;;;;;;4952651;28;36140;-76
2023/03/21 08:32:41;;;;;;;16.13;7.10;;;10.60;99.90;;;;;;4982092;28;39800;-75
2023/03/21 08:35:10;;;;;;;16.35;7.72;;;10.60;99.90;;;;;;4955910;28;37306;-75
2023/03/21 08:37:40;;;;;;;14.18;8.40;;;10.70;99.90;;;;;;4979997;28;38674;-76
2023/03/21 08:40:12;;;;;;;17.27;8.63;;;10.80;99.90;;;;;;4958659;28;36145;-76
2023/03/21 08:42:40;;;;;;;13.68;7.95;;;10.80;99.90;;;;;;4979989;28;40096;-76
2023/03/21 08:45:07;;;;;;;18.80;8.43;;;10.90;99.90;;;;;;4977050;28;38108;-76
2023/03/21 08:47:33;;;;;;;18.23;9.60;;;11.00;99.90;;;;;;4981141;28;37600;-76
2023/03/21 08:49:59;;;;;;;19.88;9.73;;;11.00;99.90;;;;;;4960210;28;35945;-76
2023/03/21 08:52:26;;;;;;;21.48;9.70;;;11.10;99.90;;;;;;4961158;28;37987;-76
2023/03/21 08:54:53;;;;;;;19.45;9.55;;;11.20;99.90;;;;;;4977853;28;39430;-76
2023/03/21 08:57:19;;;;;;;18.65;9.70;;;11.20;99.90;;;;;;4984617;28;38065;-75
2023/03/21 08:59:45;;;;;;;20.65;10.07;;;11.30;99.90;;;;;;4977449;28;37082;-76
2023/03/21 09:02:16;;;;;;;18.40;9.75;;;11.30;99.90;;;;;;4960199;28;37131;-76
2023/03/21 09:04:43;;;;;;;20.92;9.93;;;11.40;99.90;;;;;;4976019;28;38864;-76
2023/03/21 09:07:11;;;;;;;20.20;9.73;;;11.40;99.90;;;;;;4956300;28;37231;-75
2023/03/21 09:09:38;;;;;;;19.25;9.90;;;11.50;99.90;;;;;;4981600;28;37514;-76
2023/03/21 09:12:04;;;;;;;19.65;10.43;;;11.50;99.90;;;;;;4974421;28;38801;-76
2023/03/21 09:14:32;;;;;;;19.80;10.40;;;11.60;99.90;;;;;;4961266;28;37282;-76
2023/03/21 09:16:58;;;;;;;24.10;9.50;;;11.70;99.90;;;;;;4962171;28;37338;-77
2023/03/21 09:19:24;;;;;;;20.17;10.55;;;11.70;99.90;;;;;;4970278;28;37573;-76
2023/03/21 09:21:52;;;;;;;18.92;10.18;;;11.80;99.90;;;;;;4951470;28;37942;-76
2023/03/21 09:24:18;;;;;;;16.60;10.35;;;11.90;99.90;;;;;;4977673;28;38587;-76
2023/03/21 09:26:45;;;;;;;19.00;10.25;;;11.90;99.90;;;;;;4951758;28;36924;-77
2023/03/21 09:29:11;;;;;;;21.02;10.77;;;12.10;99.90;;;;;;4980754;28;38049;-80
2023/03/21 09:31:38;;;;;;;21.92;9.50;;;12.20;99.90;;;;;;4968903;28;38917;-76
2023/03/21 09:34:04;;;;;;;16.23;9.35;;;12.20;99.90;;;;;;4952808;28;36671;-78
2023/03/21 09:36:33;;;;;;;19.95;9.90;;;12.30;99.90;;;;;;4981944;28;39622;-78
2023/03/21 09:39:00;;;;;;;21.52;9.23;;;12.30;99.90;;;;;;4979405;28;37311;-78
2023/03/21 09:41:47;;;;;;;18.20;9.38;;;12.40;99.90;;;;;;4961823;28;37972;-78
2023/03/21 09:44:50;;;;;;;17.75;8.75;;;12.30;99.90;;;;;;4945739;28;37796;-78
2023/03/21 09:47:23;;;;;;;19.20;9.25;;;12.30;99.90;;;;;;4965968;28;38163;-78
2023/03/21 09:50:15;;;;;;;17.67;9.77;;;12.30;99.90;;;;;;4956599;28;35759;-78
2023/03/21 09:52:49;;;;;;;26.10;9.63;;;12.30;99.90;;;;;;4975623;28;48880;-79
2023/03/21 09:55:25;;;;;;;22.63;9.30;;;12.40;99.90;;;;;;4954616;28;38099;-78
2023/03/21 09:58:05;;;;;;;20.83;9.05;;;12.30;99.90;;;;;;4965396;28;37333;-77
2023/03/21 10:00:38;;;;;;;23.30;10.02;;;12.40;99.90;;;;;;4953857;28;47475;-80
2023/03/21 10:03:22;;;;;;;21.17;9.68;;;12.50;99.90;;;;;;4969378;28;38448;-77
2023/03/21 10:05:57;;;;;;;17.25;9.05;;;12.50;99.90;;;;;;4954738;28;37386;-77
2023/03/21 10:08:30;;;;;;;28.30;10.15;;;12.50;99.90;;;;;;4976074;28;37837;-78
2023/03/21 10:11:12;;;;;;;22.33;9.70;;;12.40;99.90;;;;;;4952403;28;37154;-78
2023/03/21 10:13:43;;;;;;;23.45;9.68;;;12.30;99.90;;;;;;4969327;28;48453;-78
2023/03/21 10:16:24;;;;;;;15.45;8.77;;;12.40;99.90;;;;;;4978911;28;38678;-77
2023/03/21 10:18:51;;;;;;;16.27;9.13;;;12.50;99.90;;;;;;4947479;28;38762;-78
2023/03/21 10:21:27;;;;;;;18.88;9.23;;;12.60;99.90;;;;;;4961721;28;36233;-78
2023/03/21 10:23:57;;;;;;;16.63;9.27;;;12.50;99.90;;;;;;4963142;28;37504;-78
2023/03/21 10:26:26;;;;;;;19.35;9.43;;;12.40;99.90;;;;;;4954572;28;38539;-78
2023/03/21 10:28:56;;;;;;;16.02;8.07;;;12.40;99.90;;;;;;4986454;28;38590;-78
2023/03/21 10:31:25;;;;;;;21.40;9.25;;;12.30;99.90;;;;;;4954017;28;38647;-78
2023/03/21 10:33:54;;;;;;;18.42;8.82;;;12.30;99.90;;;;;;4978651;28;39968;-79
2023/03/21 10:36:26;;;;;;;18.08;9.68;;;12.30;99.90;;;;;;4954429;28;37121;-79
2023/03/21 10:38:57;;;;;;;25.65;9.82;;;12.30;99.90;;;;;;4969185;28;37308;-79
2023/03/21 10:41:23;;;;;;;19.17;7.90;;;12.30;99.90;;;;;;4972326;28;36952;-80
2023/03/21 10:44:10;;;;;;;18.15;8.63;;;12.30;99.90;;;;;;4984495;28;39472;-77
2023/03/21 10:46:36;;;;;;;17.17;9.98;;;12.30;99.90;;;;;;4941463;28;47342;-76
2023/03/21 10:49:07;;;;;;;17.23;8.07;;;12.30;99.90;;;;;;4953824;28;37518;-77
2023/03/21 10:51:37;;;;;;;18.98;8.52;;;12.30;99.90;;;;;;4973417;28;37205;-77
2023/03/21 10:54:12;;;;;;;19.70;9.32;;;12.30;99.90;;;;;;4960892;28;38034;-78
2023/03/21 10:56:45;;;;;;;20.20;8.60;;;12.50;99.90;;;;;;4969008;28;38663;-78
2023/03/21 10:59:19;;;;;;;17.67;7.30;;;12.60;99.90;;;;;;4968355;28;39211;-78
2023/03/21 11:01:50;;;;;;;14.60;7.43;;;12.70;99.90;;;;;;4953131;28;36136;-78
2023/03/21 11:04:22;;;;;;;19.00;8.32;;;12.80;99.90;;;;;;4970941;28;38738;-78
2023/03/21 11:06:55;;;;;;;16.52;8.75;;;12.80;99.90;;;;;;4979137;28;38134;-78
2023/03/21 11:09:42;;;;;;;14.35;8.30;;;13.00;99.90;;;;;;4943650;28;36847;-78
2023/03/21 11:12:16;;;;;;;18.88;7.75;;;13.20;99.90;;;;;;4951800;28;36466;-78
2023/03/21 11:14:46;;;;;;;16.02;8.30;;;13.20;99.90;;;;;;4958844;28;39074;-79
2023/03/21 11:17:21;;;;;;;16.65;8.40;;;13.30;99.90;;;;;;4959314;28;38866;-79
2023/03/21 11:20:04;;;;;;;15.70;7.30;;;13.40;99.90;;;;;;4964763;28;37999;-78
2023/03/21 11:22:37;;;;;;;;;;;13.40;99.90;;;;;;4946505;28;46427;-78
2023/03/21 11:25:08;;;;;;;15.35;6.90;;;13.50;99.90;;;;;;4952598;28;38627;-79
2023/03/21 11:27:34;;;;;;;15.35;6.15;;;13.50;99.90;;;;;;4957929;28;47342;-79
2023/03/21 11:30:04;;;;;;;15.13;7.20;;;13.70;99.90;;;;;;4954095;28;38207;-78
2023/03/21 11:32:36;;;;;;;13.80;7.07;;;13.90;99.90;;;;;;4954563;28;37000;-79
2023/03/21 11:35:20;;;;;;;14.10;6.60;;;13.80;99.90;;;;;;4947520;28;38168;-76
2023/03/21 11:37:55;;;;;;;15.38;6.97;;;13.60;99.90;;;;;;4963750;28;48894;-80
2023/03/21 11:40:25;;;;;;;12.70;6.45;;;13.50;99.90;;;;;;4966077;28;38578;-79
2023/03/21 11:43:16;;;;;;;14.77;7.18;;;13.40;99.90;;;;;;4950613;28;36657;-82
2023/03/21 11:46:00;;;;;;;16.40;7.13;;;13.50;99.90;;;;;;4973939;28;49191;-81
2023/03/21 11:48:27;;;;;;;20.38;7.97;;;13.60;99.90;;;;;;4961133;28;37498;-80
2023/03/21 11:51:11;;;;;;;12.77;7.85;;;13.70;99.90;;;;;;4952301;28;37101;-82
2023/03/21 11:54:22;;;;;;;12.85;7.80;;;13.80;99.90;;;;;;4941611;28;47413;-78
2023/03/21 11:56:55;;;;;;;14.27;7.95;;;14.10;99.90;;;;;;4942820;28;46988;-78
2023/03/21 11:59:45;;;;;;;13.75;7.05;;;14.30;99.90;;;;;;4960354;28;38554;-78
2023/03/21 12:02:33;;;;;;;13.38;6.30;;;14.10;99.90;;;;;;4957848;28;38419;-79
2023/03/21 12:05:18;;;;;;;13.35;5.90;;;14.20;99.90;;;;;;4934186;28;36662;-78
2023/03/21 12:08:24;;;;;;;14.05;6.75;;;14.10;99.90;;;;;;4941214;28;46999;-80
2023/03/21 12:11:02;;;;;;;18.00;8.48;;;13.90;99.90;;;;;;4945569;28;47478;-78
2023/03/21 12:13:45;;;;;;;15.90;9.45;;;13.60;99.90;;;;;;4946315;28;47007;-78
2023/03/21 12:16:29;;;;;;;;;;;13.40;99.90;;;;;;4945768;28;36861;-78
2023/03/21 12:19:43;;;;;;;16.63;8.70;;;13.50;99.90;;;;;;4946144;28;37920;-78
2023/03/21 12:22:27;;;;;;;12.05;7.60;;;13.70;99.90;;;;;;4928127;28;47336;-77
2023/03/21 12:24:55;;;;;;;15.85;8.70;;;13.80;99.90;;;;;;4951226;28;38225;-78
2023/03/21 12:27:47;;;;;;;11.82;7.35;;;13.60;99.90;;;;;;4979970;28;36811;-77
2023/03/21 12:30:23;;;;;;;19.38;7.93;;;13.40;99.90;;;;;;4951365;28;37476;-78
2023/03/21 12:33:07;;;;;;;12.18;7.60;;;13.50;99.90;;;;;;4969171;28;39231;-79
2023/03/21 12:35:49;;;;;;;12.52;7.45;;;13.80;99.90;;;;;;4948409;28;46645;-77
2023/03/21 12:38:42;;;;;;;14.48;7.07;;;14.00;99.90;;;;;;4971375;28;36672;-77
2023/03/21 12:41:32;;;;;;;13.05;6.75;;;13.90;99.90;;;;;;4964076;28;37575;-77
2023/03/21 12:44:01;;;;;;;11.82;6.78;;;14.20;99.90;;;;;;4965955;28;38214;-78
2023/03/21 12:46:42;;;;;;;11.95;6.57;;;14.30;99.90;;;;;;4948344;28;47106;-74
2023/03/21 12:49:15;;;;;;;12.73;7.65;;;14.30;99.90;;;;;;4949413;28;36118;-76
2023/03/21 12:51:46;;;;;;;12.57;6.65;;;14.40;99.90;;;;;;4966676;28;38951;-77
2023/03/21 12:54:25;;;;;;;12.25;6.22;;;14.30;99.90;;;;;;4964868;28;38183;-78
2023/03/21 12:57:20;;;;;;;11.65;6.20;;;14.30;99.90;;;;;;4952335;28;38426;-77
2023/03/21 13:00:12;;;;;;;12.68;5.68;;;14.00;99.90;;;;;;4949894;28;47298;-78
2023/03/21 13:02:47;;;;;;;9.60;5.07;;;13.90;99.90;;;;;;4970847;28;38239;-78